KRNH

New Richmond Regional Airport

New Richmond, Wisconsin, USA
METAR KRNH 230955Z AUTO 32003KT 10SM CLR M02/M05 A3029 RMK AO2 T10251046
Observed Flight Rules
Oct-23 @ 09:55 UTC (20 minutes ago) Visual Flight Rules
Wind Visibility Clouds
320° at 3 knots 10 miles
  • Clear skies
Temperatures Readings
Current -3°C / 27°F
Dewpoint -5°C / 23°F
Humidity 86%
Altimeter 30.29" Hg
Pressure 1026 hPa
Elevation 304
METAR KRNH 230955Z AUTO 32003KT 10SM CLR M02/M05 A3029 RMK AO2 T10251046
Observed Flight Rules
Oct-23 @ 09:55 UTC
(20 minutes ago)
VFR
Wind Visibility
320° at 3 knots 10 miles
Clouds
  • Clear skies
Temperature Dewpoint
-3°C / 27°F -5°C / 23°F
Humidity Altimeter Pressure
86% 30.29" Hg 1026 hPa